createdAt,value
2018-11-11T00:01:34.296Z,7.70
2018-11-11T00:04:01.951Z,7.80
2018-11-11T00:06:29.567Z,7.80
2018-11-11T00:08:57.195Z,7.80
2018-11-11T00:11:24.890Z,7.80
2018-11-11T00:13:52.527Z,7.80
2018-11-11T00:16:20.257Z,7.80
2018-11-11T00:18:47.833Z,7.70
2018-11-11T00:21:16.369Z,7.70
2018-11-11T00:23:44.001Z,7.70
2018-11-11T00:26:11.654Z,7.70
2018-11-11T00:28:39.363Z,7.70
2018-11-11T00:31:06.951Z,7.70
2018-11-11T00:33:34.529Z,7.70
2018-11-11T00:36:02.187Z,7.70
2018-11-11T00:41:08.122Z,7.60
2018-11-11T00:43:35.696Z,7.60
2018-11-11T00:46:03.538Z,7.60
2018-11-11T00:48:31.144Z,7.60
2018-11-11T00:50:58.948Z,7.60
2018-11-11T00:53:26.579Z,7.70
2018-11-11T00:55:54.539Z,7.70
2018-11-11T00:58:22.115Z,7.70
2018-11-11T01:00:49.709Z,7.70
2018-11-11T01:03:17.410Z,7.70
2018-11-11T01:05:45.151Z,7.80
2018-11-11T01:08:12.867Z,7.80
2018-11-11T01:10:40.613Z,7.80
2018-11-11T01:13:08.653Z,7.80
2018-11-11T01:15:36.350Z,7.80
2018-11-11T01:18:04.109Z,7.80
2018-11-11T01:20:31.893Z,7.80
2018-11-11T01:22:59.575Z,7.80
2018-11-11T01:25:27.371Z,7.80
2018-11-11T01:27:55.163Z,7.80
2018-11-11T01:30:22.906Z,7.80
2018-11-11T01:32:50.566Z,7.80
2018-11-11T01:35:18.353Z,7.80
2018-11-11T01:37:46.058Z,7.90
2018-11-11T01:40:14.012Z,7.90
2018-11-11T01:42:41.771Z,7.90
2018-11-11T01:45:11.827Z,8.00
2018-11-11T01:47:39.478Z,7.90
2018-11-11T01:50:10.405Z,7.90
2018-11-11T01:52:38.458Z,7.90
2018-11-11T01:55:06.393Z,7.90
2018-11-11T01:57:34.532Z,7.90
2018-11-11T02:00:02.355Z,7.90
2018-11-11T02:02:30.029Z,7.90
2018-11-11T02:04:57.598Z,7.80
2018-11-11T02:07:25.370Z,7.80
2018-11-11T02:09:53.061Z,7.70
2018-11-11T02:12:20.685Z,7.70
2018-11-11T02:14:48.445Z,7.70
2018-11-11T02:17:16.005Z,7.70
2018-11-11T02:19:43.809Z,7.70
2018-11-11T02:22:11.405Z,7.70
2018-11-11T02:24:39.174Z,7.80
2018-11-11T02:27:06.978Z,7.80
2018-11-11T02:29:34.693Z,7.80
2018-11-11T02:32:02.499Z,7.80
2018-11-11T02:34:30.135Z,7.80
2018-11-11T02:36:57.970Z,7.80
2018-11-11T02:39:25.507Z,7.80
2018-11-11T02:41:53.246Z,7.80
2018-11-11T02:44:20.964Z,7.80
2018-11-11T02:46:48.618Z,7.80
2018-11-11T02:49:16.269Z,7.90
2018-11-11T02:51:43.801Z,7.90
2018-11-11T02:54:11.932Z,7.90
2018-11-11T02:56:39.520Z,7.80
2018-11-11T02:59:07.429Z,7.80
2018-11-11T03:01:35.086Z,7.80
2018-11-11T03:04:02.764Z,7.80
2018-11-11T03:06:30.419Z,7.80
2018-11-11T03:08:58.158Z,7.70
2018-11-11T03:11:25.784Z,7.70
2018-11-11T03:13:53.389Z,7.60
2018-11-11T03:16:21.245Z,7.60
2018-11-11T03:18:48.938Z,7.60
2018-11-11T03:21:16.628Z,7.60
2018-11-11T03:23:44.231Z,7.60
2018-11-11T03:26:12.291Z,7.60
2018-11-11T03:28:39.889Z,7.50
2018-11-11T03:31:07.631Z,7.50
2018-11-11T03:33:35.313Z,7.50
2018-11-11T03:36:03.043Z,7.40
2018-11-11T03:38:30.735Z,7.40
2018-11-11T03:40:58.284Z,7.40
2018-11-11T03:43:26.019Z,7.30
2018-11-11T03:45:53.617Z,7.30
2018-11-11T03:48:21.457Z,7.30
2018-11-11T03:50:49.202Z,7.30
2018-11-11T03:53:16.899Z,7.30
2018-11-11T03:55:44.588Z,7.30
2018-11-11T03:58:12.278Z,7.30
2018-11-11T04:00:39.990Z,7.40
2018-11-11T04:03:07.580Z,7.40
2018-11-11T04:05:35.310Z,7.50
2018-11-11T04:08:02.914Z,7.50
2018-11-11T04:10:30.666Z,7.50
2018-11-11T04:12:58.426Z,7.50
2018-11-11T04:15:26.052Z,7.50
2018-11-11T04:17:54.098Z,7.50
2018-11-11T04:20:21.696Z,7.60
2018-11-11T04:22:49.383Z,7.50
2018-11-11T04:25:17.675Z,7.50
2018-11-11T04:27:45.450Z,7.50
2018-11-11T04:30:14.209Z,7.40
2018-11-11T04:32:42.224Z,7.30
2018-11-11T04:35:10.098Z,7.20
2018-11-11T04:37:38.026Z,7.20
2018-11-11T04:40:07.373Z,7.10
2018-11-11T04:42:35.134Z,7.10
2018-11-11T04:45:03.050Z,7.20
2018-11-11T04:47:30.745Z,7.20
2018-11-11T04:49:58.435Z,7.10
2018-11-11T04:52:26.221Z,7.20
2018-11-11T04:54:53.788Z,7.20
2018-11-11T04:57:21.574Z,7.20
2018-11-11T04:59:49.272Z,7.20
2018-11-11T05:02:17.021Z,7.20
2018-11-11T05:04:44.867Z,7.20
2018-11-11T05:07:12.432Z,7.20
2018-11-11T05:09:40.095Z,7.20
2018-11-11T05:12:07.694Z,7.10
2018-11-11T05:14:35.297Z,7.10
2018-11-11T05:17:03.004Z,7.10
2018-11-11T05:19:30.855Z,7.10
2018-11-11T05:21:58.742Z,7.10
2018-11-11T05:24:32.934Z,7.10
2018-11-11T05:27:00.538Z,7.10
2018-11-11T05:29:28.282Z,7.10
2018-11-11T05:31:55.906Z,7.10
2018-11-11T05:34:23.552Z,7.10
2018-11-11T05:36:51.392Z,7.10
2018-11-11T05:39:19.037Z,7.10
2018-11-11T05:41:46.803Z,7.10
2018-11-11T05:44:14.526Z,7.10
2018-11-11T05:46:42.149Z,7.20
2018-11-11T05:49:09.955Z,7.20
2018-11-11T05:51:37.570Z,7.30
2018-11-11T05:54:05.385Z,7.30
2018-11-11T05:56:33.108Z,7.40
2018-11-11T05:59:01.148Z,7.40
2018-11-11T06:01:28.923Z,7.40
2018-11-11T06:03:56.485Z,7.40
2018-11-11T06:06:24.395Z,7.40
2018-11-11T06:08:52.001Z,7.40
2018-11-11T06:11:19.835Z,7.40
2018-11-11T06:13:47.499Z,7.30
2018-11-11T06:16:15.144Z,7.30
2018-11-11T06:18:42.899Z,7.30
2018-11-11T06:21:10.453Z,7.30
2018-11-11T06:23:38.298Z,7.30
2018-11-11T06:26:06.142Z,7.30
2018-11-11T06:28:33.811Z,7.30
2018-11-11T06:31:01.456Z,7.20
2018-11-11T06:33:29.309Z,7.30
2018-11-11T06:35:56.993Z,7.30
2018-11-11T06:38:24.657Z,7.30
2018-11-11T06:40:52.528Z,7.40
2018-11-11T06:43:20.118Z,7.40
2018-11-11T06:45:47.958Z,7.40
2018-11-11T06:48:15.789Z,7.40
2018-11-11T06:50:43.502Z,7.40
2018-11-11T06:53:11.195Z,7.50
2018-11-11T06:55:38.769Z,7.60
2018-11-11T06:58:07.196Z,7.70
2018-11-11T07:00:34.766Z,7.80
2018-11-11T07:03:13.610Z,7.80
2018-11-11T07:05:41.548Z,7.80
2018-11-11T07:08:09.220Z,7.80
2018-11-11T07:10:37.040Z,7.80
2018-11-11T07:13:04.926Z,7.80
2018-11-11T07:15:33.003Z,7.80
2018-11-11T07:18:00.752Z,7.80
2018-11-11T07:20:28.440Z,7.80
2018-11-11T07:22:56.204Z,8.10
2018-11-11T07:25:23.882Z,8.40
2018-11-11T07:27:51.426Z,8.80
2018-11-11T07:30:19.276Z,8.90
2018-11-11T07:32:47.048Z,8.90
2018-11-11T07:35:15.028Z,9.00
2018-11-11T07:37:42.838Z,9.20
2018-11-11T07:40:17.133Z,9.30
2018-11-11T07:42:44.954Z,9.50
2018-11-11T07:45:12.769Z,9.50
2018-11-11T07:47:40.431Z,9.40
2018-11-11T07:50:09.042Z,9.40
2018-11-11T07:52:37.228Z,9.40
2018-11-11T07:55:06.070Z,9.40
2018-11-11T07:57:33.728Z,9.40
2018-11-11T08:00:01.434Z,9.60
2018-11-11T08:02:29.040Z,9.70
2018-11-11T08:04:56.933Z,9.90
2018-11-11T08:07:24.541Z,10.00
2018-11-11T08:09:52.187Z,10.10
2018-11-11T08:12:19.799Z,10.00
2018-11-11T08:14:47.363Z,10.00
2018-11-11T08:17:14.951Z,10.00
2018-11-11T08:19:42.577Z,10.10
2018-11-11T08:22:10.235Z,10.30
2018-11-11T08:24:41.114Z,10.50
2018-11-11T08:27:08.735Z,10.80
2018-11-11T08:29:36.335Z,11.00
2018-11-11T08:32:04.575Z,11.20
2018-11-11T08:34:32.137Z,11.30
2018-11-11T08:36:59.763Z,11.20
2018-11-11T08:39:27.317Z,11.10
2018-11-11T08:41:54.893Z,10.80
2018-11-11T08:44:22.476Z,10.50
2018-11-11T08:46:50.070Z,10.30
2018-11-11T08:49:17.662Z,10.10
2018-11-11T08:51:45.260Z,10.00
2018-11-11T08:54:12.883Z,10.00
2018-11-11T08:56:40.447Z,9.90
2018-11-11T08:59:08.006Z,9.90
2018-11-11T09:01:35.587Z,9.90
2018-11-11T09:04:03.200Z,10.10
2018-11-11T09:06:30.812Z,10.30
2018-11-11T09:08:58.471Z,10.40
2018-11-11T09:11:26.104Z,10.40
2018-11-11T09:13:53.718Z,10.50
2018-11-11T09:16:21.427Z,10.50
2018-11-11T09:18:49.152Z,10.50
2018-11-11T09:21:16.827Z,10.50
2018-11-11T09:23:44.534Z,10.50
2018-11-11T09:26:12.114Z,10.50
2018-11-11T09:28:39.740Z,10.50
2018-11-11T09:31:07.334Z,10.50
2018-11-11T09:33:35.062Z,10.50
2018-11-11T09:36:02.687Z,10.60
2018-11-11T09:38:36.924Z,10.70
2018-11-11T09:41:05.030Z,10.80
2018-11-11T09:43:32.668Z,10.90
2018-11-11T09:46:00.258Z,10.90
2018-11-11T09:48:27.849Z,10.80
2018-11-11T09:50:55.535Z,10.80
2018-11-11T09:53:23.446Z,10.70
2018-11-11T09:55:51.124Z,10.60
2018-11-11T09:58:18.729Z,10.50
2018-11-11T10:00:46.896Z,10.40
2018-11-11T10:03:21.800Z,10.30
2018-11-11T10:05:58.047Z,10.30
2018-11-11T10:08:43.749Z,10.30
2018-11-11T10:11:17.829Z,10.40
2018-11-11T10:14:04.540Z,10.50
2018-11-11T10:16:37.721Z,10.70
2018-11-11T10:19:19.807Z,10.90
2018-11-11T10:21:54.761Z,11.20
2018-11-11T10:24:31.829Z,11.40
2018-11-11T10:27:06.172Z,11.70
2018-11-11T10:29:39.147Z,11.90
2018-11-11T10:32:22.553Z,12.00
2018-11-11T10:34:58.753Z,12.10
2018-11-11T10:37:32.300Z,12.00
2018-11-11T10:40:08.545Z,12.10
2018-11-11T10:42:41.937Z,12.10
2018-11-11T10:45:20.119Z,12.20
2018-11-11T10:48:04.225Z,12.30
2018-11-11T10:50:42.351Z,12.40
2018-11-11T10:53:09.962Z,12.60
2018-11-11T10:55:37.686Z,12.80
2018-11-11T10:58:05.371Z,12.90
2018-11-11T11:00:38.615Z,13.00
2018-11-11T11:03:12.135Z,12.90
2018-11-11T11:05:39.775Z,12.80
2018-11-11T11:08:07.355Z,12.60
2018-11-11T11:10:35.249Z,12.50
2018-11-11T11:13:02.925Z,12.40
2018-11-11T11:15:30.492Z,12.30
2018-11-11T11:17:58.083Z,12.20
2018-11-11T11:20:25.732Z,12.20
2018-11-11T11:22:53.315Z,12.10
2018-11-11T11:25:21.944Z,12.10
2018-11-11T11:27:49.546Z,12.10
2018-11-11T11:30:17.212Z,12.00
2018-11-11T11:32:44.862Z,11.90
2018-11-11T11:35:12.502Z,11.90
2018-11-11T11:37:40.114Z,11.90
2018-11-11T11:40:09.529Z,11.80
2018-11-11T11:42:37.554Z,11.90
2018-11-11T11:45:05.838Z,11.90
2018-11-11T11:47:33.485Z,11.80
2018-11-11T11:50:01.209Z,11.80
2018-11-11T11:52:28.898Z,11.70
2018-11-11T11:54:56.476Z,11.70
2018-11-11T11:57:24.098Z,11.70
2018-11-11T11:59:51.788Z,11.70
2018-11-11T12:02:19.479Z,11.60
2018-11-11T12:04:47.014Z,11.60
2018-11-11T12:07:14.671Z,11.60
2018-11-11T12:09:42.635Z,11.60
2018-11-11T12:12:10.328Z,11.50
2018-11-11T12:14:38.033Z,11.50
2018-11-11T12:17:06.172Z,11.50
2018-11-11T12:19:33.830Z,11.50
2018-11-11T12:22:01.524Z,11.50
2018-11-11T12:24:29.160Z,11.40
2018-11-11T12:26:56.744Z,11.40
2018-11-11T12:29:24.415Z,11.30
2018-11-11T12:31:52.016Z,11.30
2018-11-11T12:34:19.720Z,11.30
2018-11-11T12:36:47.396Z,11.20
2018-11-11T12:39:15.230Z,11.20
2018-11-11T12:41:42.764Z,11.20
2018-11-11T12:44:10.923Z,11.30
2018-11-11T12:46:38.600Z,11.20
2018-11-11T12:49:06.351Z,11.20
2018-11-11T12:51:33.929Z,11.20
2018-11-11T12:54:01.521Z,11.20
2018-11-11T12:56:29.119Z,11.10
2018-11-11T12:58:56.910Z,11.20
2018-11-11T13:01:24.573Z,11.20
2018-11-11T13:03:52.287Z,11.30
2018-11-11T13:06:19.957Z,11.40
2018-11-11T13:08:47.671Z,11.40
2018-11-11T13:11:15.883Z,11.50
2018-11-11T13:13:43.516Z,11.50
2018-11-11T13:16:11.094Z,11.60
2018-11-11T13:18:38.783Z,11.60
2018-11-11T13:21:06.483Z,11.70
2018-11-11T13:23:34.085Z,11.70
2018-11-11T13:26:01.704Z,11.70
2018-11-11T13:28:35.857Z,11.60
2018-11-11T13:31:03.664Z,11.70
2018-11-11T13:36:05.599Z,11.70
2018-11-11T13:38:33.201Z,11.70
2018-11-11T13:41:00.893Z,11.70
2018-11-11T13:43:28.454Z,11.80
2018-11-11T13:45:56.086Z,11.80
2018-11-11T13:48:23.719Z,11.80
2018-11-11T13:50:51.346Z,11.90
2018-11-11T13:53:18.968Z,11.90
2018-11-11T13:55:46.754Z,11.90
2018-11-11T13:58:14.332Z,11.90
2018-11-11T14:00:41.978Z,11.90
2018-11-11T14:03:09.612Z,12.00
2018-11-11T14:05:37.260Z,12.00
2018-11-11T14:08:04.948Z,11.90
2018-11-11T14:10:32.703Z,12.00
2018-11-11T14:13:00.372Z,11.90
2018-11-11T14:15:27.998Z,11.90
2018-11-11T14:17:56.201Z,11.90
2018-11-11T14:20:24.495Z,12.00
2018-11-11T14:22:53.036Z,12.00
2018-11-11T14:25:24.184Z,12.00
2018-11-11T14:27:51.746Z,12.00
2018-11-11T14:30:20.708Z,11.90
2018-11-11T14:32:49.135Z,11.90
2018-11-11T14:35:16.954Z,11.90
2018-11-11T14:37:47.322Z,11.90
2018-11-11T14:40:20.110Z,11.90
2018-11-11T14:42:48.193Z,11.90
2018-11-11T14:45:16.874Z,11.80
2018-11-11T14:47:45.917Z,11.80
2018-11-11T14:50:14.625Z,11.80
2018-11-11T14:52:42.918Z,11.70
2018-11-11T14:55:28.126Z,11.70
2018-11-11T14:57:56.650Z,11.60
2018-11-11T15:00:27.338Z,11.50
2018-11-11T15:03:00.149Z,11.50
2018-11-11T15:05:29.204Z,11.50
2018-11-11T15:07:58.479Z,11.40
2018-11-11T15:10:26.624Z,11.40
2018-11-11T15:12:54.491Z,11.30
2018-11-11T15:15:22.955Z,11.30
2018-11-11T15:17:54.438Z,11.30
2018-11-11T15:20:22.215Z,11.20
2018-11-11T15:22:49.864Z,11.30
2018-11-11T15:25:18.986Z,11.50
2018-11-11T15:27:47.249Z,11.70
2018-11-11T15:30:18.346Z,11.90
2018-11-11T15:32:46.479Z,12.00
2018-11-11T15:35:14.319Z,12.10
2018-11-11T15:37:42.129Z,12.10
2018-11-11T15:40:12.084Z,12.00
2018-11-11T15:42:40.817Z,11.80
2018-11-11T15:45:10.340Z,11.60
2018-11-11T15:47:39.555Z,11.30
2018-11-11T15:50:13.019Z,11.10
2018-11-11T15:52:41.914Z,10.90
2018-11-11T15:55:10.581Z,10.60
2018-11-11T15:57:38.272Z,10.50
2018-11-11T16:00:09.147Z,10.30
2018-11-11T16:02:36.883Z,10.20
2018-11-11T16:05:05.207Z,10.00
2018-11-11T16:07:33.338Z,9.90
2018-11-11T16:10:01.425Z,9.80
2018-11-11T16:12:30.438Z,9.70
2018-11-11T16:14:58.564Z,9.60
2018-11-11T16:17:26.872Z,9.50
2018-11-11T16:19:55.247Z,9.50
2018-11-11T16:22:23.284Z,9.40
2018-11-11T16:24:50.987Z,9.30
2018-11-11T16:27:19.015Z,9.20
2018-11-11T16:29:47.294Z,9.10
2018-11-11T16:32:15.318Z,9.10
2018-11-11T16:34:43.064Z,9.00
2018-11-11T16:37:10.764Z,8.90
2018-11-11T16:39:38.762Z,8.90
2018-11-11T16:42:06.401Z,8.90
2018-11-11T16:44:34.112Z,8.80
2018-11-11T16:47:02.326Z,8.70
2018-11-11T16:49:30.556Z,8.70
2018-11-11T16:51:58.940Z,8.60
2018-11-11T16:54:28.678Z,8.60
2018-11-11T16:56:56.949Z,8.50
2018-11-11T16:59:24.716Z,8.40
2018-11-11T17:01:52.468Z,8.40
2018-11-11T17:04:20.228Z,8.30
2018-11-11T17:06:48.174Z,8.30
2018-11-11T17:09:16.192Z,8.30
2018-11-11T17:11:44.028Z,8.20
2018-11-11T17:14:11.999Z,8.20
2018-11-11T17:16:39.831Z,8.10
2018-11-11T17:19:07.474Z,8.10
2018-11-11T17:21:35.302Z,8.10
2018-11-11T17:24:03.180Z,8.10
2018-11-11T17:26:31.479Z,8.00
2018-11-11T17:28:59.882Z,7.90
2018-11-11T17:31:28.506Z,7.90
2018-11-11T17:33:56.961Z,7.80
2018-11-11T17:36:25.152Z,7.70
2018-11-11T17:38:54.509Z,7.60
2018-11-11T17:41:22.934Z,7.50
2018-11-11T17:43:50.699Z,7.60
2018-11-11T17:46:18.530Z,7.60
2018-11-11T17:48:46.527Z,7.50
2018-11-11T17:51:15.079Z,7.50
2018-11-11T17:53:43.597Z,7.50
2018-11-11T17:56:11.383Z,7.50
2018-11-11T17:58:40.799Z,7.50
2018-11-11T18:01:08.522Z,7.50
2018-11-11T18:03:36.285Z,7.40
2018-11-11T18:06:05.141Z,7.40
2018-11-11T18:08:33.057Z,7.40
2018-11-11T18:11:01.183Z,7.40
2018-11-11T18:13:29.876Z,7.40
2018-11-11T18:15:58.893Z,7.40
2018-11-11T18:18:27.233Z,7.40
2018-11-11T18:20:55.410Z,7.30
2018-11-11T18:23:24.144Z,7.30
2018-11-11T18:25:51.912Z,7.40
2018-11-11T18:28:19.812Z,7.40
2018-11-11T18:30:47.764Z,7.40
2018-11-11T18:33:16.205Z,7.40
2018-11-11T18:35:44.259Z,7.40
2018-11-11T18:38:12.033Z,7.40
2018-11-11T18:40:39.760Z,7.50
2018-11-11T18:43:07.563Z,7.50
2018-11-11T18:45:35.695Z,7.50
2018-11-11T18:48:03.809Z,7.60
2018-11-11T18:50:32.774Z,7.60
2018-11-11T18:53:01.412Z,7.60
2018-11-11T18:55:30.201Z,7.60
2018-11-11T18:57:59.236Z,7.60
2018-11-11T19:00:29.599Z,7.60
2018-11-11T19:02:59.593Z,7.60
2018-11-11T19:05:30.050Z,7.50
2018-11-11T19:07:59.178Z,7.50
2018-11-11T19:10:29.057Z,7.50
2018-11-11T19:12:59.559Z,7.50
2018-11-11T19:15:28.231Z,7.50
2018-11-11T19:17:57.431Z,7.50
2018-11-11T19:20:26.345Z,7.50
2018-11-11T19:22:54.317Z,7.40
2018-11-11T19:25:23.651Z,7.40
2018-11-11T19:27:53.396Z,7.40
2018-11-11T19:30:23.550Z,7.30
2018-11-11T19:32:51.974Z,7.30
2018-11-11T19:35:20.397Z,7.30
2018-11-11T19:37:49.911Z,7.30
2018-11-11T19:40:20.571Z,7.20
2018-11-11T19:42:49.843Z,7.20
2018-11-11T19:45:19.447Z,7.20
2018-11-11T19:47:47.669Z,7.20
2018-11-11T19:50:17.959Z,7.10
2018-11-11T19:52:47.016Z,7.10
2018-11-11T19:55:15.404Z,7.00
2018-11-11T19:57:43.373Z,7.00
2018-11-11T20:00:14.443Z,7.00
2018-11-11T20:02:43.387Z,7.00
2018-11-11T20:05:12.593Z,7.00
2018-11-11T20:07:41.412Z,7.00
2018-11-11T20:10:11.000Z,6.90
2018-11-11T20:12:38.946Z,6.90
2018-11-11T20:15:09.117Z,6.90
2018-11-11T20:17:37.273Z,6.80
2018-11-11T20:20:07.956Z,6.80
2018-11-11T20:22:35.649Z,6.70
2018-11-11T20:25:04.604Z,6.70
2018-11-11T20:27:32.586Z,6.60
2018-11-11T20:30:00.435Z,6.60
2018-11-11T20:32:29.258Z,6.60
2018-11-11T20:34:57.457Z,6.50
2018-11-11T20:37:26.561Z,6.50
2018-11-11T20:39:54.781Z,6.50
2018-11-11T20:42:23.324Z,6.40
2018-11-11T20:44:51.026Z,6.40
2018-11-11T20:47:19.036Z,6.40
2018-11-11T20:49:46.877Z,6.30
2018-11-11T20:52:14.733Z,6.30
2018-11-11T20:54:42.466Z,6.30
2018-11-11T20:57:10.140Z,6.20
2018-11-11T20:59:37.807Z,6.20
2018-11-11T21:02:05.613Z,6.10
2018-11-11T21:04:34.513Z,6.00
2018-11-11T21:07:03.199Z,6.00
2018-11-11T21:09:31.284Z,6.00
2018-11-11T21:11:59.063Z,6.00
2018-11-11T21:14:26.833Z,5.90
2018-11-11T21:16:56.767Z,5.90
2018-11-11T21:19:25.143Z,5.90
2018-11-11T21:21:52.853Z,5.90
2018-11-11T21:24:20.573Z,5.90
2018-11-11T21:26:48.385Z,5.90
2018-11-11T21:29:16.904Z,5.90
2018-11-11T21:31:44.746Z,5.90
2018-11-11T21:34:12.509Z,5.80
2018-11-11T21:36:41.119Z,5.80
2018-11-11T21:39:10.489Z,5.70
2018-11-11T21:41:38.996Z,5.70
2018-11-11T21:44:06.649Z,5.70
2018-11-11T21:46:35.119Z,5.70
2018-11-11T21:49:02.935Z,5.70
2018-11-11T21:51:30.680Z,5.60
2018-11-11T21:53:58.430Z,5.60
2018-11-11T21:56:27.163Z,5.60
2018-11-11T21:58:55.587Z,5.60
2018-11-11T22:01:23.277Z,5.60
2018-11-11T22:03:50.893Z,5.60
2018-11-11T22:06:18.556Z,5.50
2018-11-11T22:08:46.605Z,5.50
2018-11-11T22:11:14.212Z,5.40
2018-11-11T22:13:42.075Z,5.30
2018-11-11T22:16:10.790Z,5.30
2018-11-11T22:18:38.320Z,5.20
2018-11-11T22:21:05.966Z,5.30
2018-11-11T22:23:34.518Z,5.30
2018-11-11T22:26:02.240Z,5.40
2018-11-11T22:28:30.006Z,5.40
2018-11-11T22:30:57.752Z,5.50
2018-11-11T22:33:25.440Z,5.50
2018-11-11T22:35:53.104Z,5.60
2018-11-11T22:38:20.716Z,5.60
2018-11-11T22:40:48.362Z,5.60
2018-11-11T22:43:15.981Z,5.60
2018-11-11T22:45:43.581Z,5.60
2018-11-11T22:48:11.822Z,5.60
2018-11-11T22:50:39.347Z,5.60
2018-11-11T22:53:06.885Z,5.60
2018-11-11T22:55:34.434Z,5.60
2018-11-11T22:58:02.093Z,5.60
2018-11-11T23:00:30.768Z,5.50
2018-11-11T23:02:58.533Z,5.50
2018-11-11T23:05:26.244Z,5.60
2018-11-11T23:07:53.813Z,5.60
2018-11-11T23:10:21.535Z,5.70
2018-11-11T23:12:49.119Z,5.70
2018-11-11T23:15:17.851Z,5.70
2018-11-11T23:17:45.445Z,5.70
2018-11-11T23:20:14.323Z,5.70
2018-11-11T23:22:42.049Z,5.70
2018-11-11T23:25:11.311Z,5.60
2018-11-11T23:27:38.848Z,5.60
2018-11-11T23:30:09.621Z,5.60
2018-11-11T23:32:37.194Z,5.60
2018-11-11T23:35:05.613Z,5.60
2018-11-11T23:37:33.206Z,5.60
2018-11-11T23:40:00.810Z,5.60
2018-11-11T23:42:28.514Z,5.60
2018-11-11T23:44:56.139Z,5.60
2018-11-11T23:47:23.796Z,5.60
2018-11-11T23:49:51.340Z,5.60
2018-11-11T23:52:18.877Z,5.60
2018-11-11T23:54:46.506Z,5.60
2018-11-11T23:57:14.061Z,5.60
2018-11-11T23:59:41.630Z,5.50
